Time;durP1;ratioP1;P1;durP2;ratioP2;P2;SDS_P1;SDS_P2;PMS_P1;PMS_P2;Temp;Humidity;BMP_temperature;BMP_pressure;BME280_temperature;BME280_humidity;BME280_pressure;Samples;Min_cycle;Max_cycle;Signal;HPM_P1;HPM_P2
2022/02/28 00:01:58;;;;;;;;;;;;;;;17.23;52.85;103075.69;5015805;28;19921;-76
2022/02/28 00:04:25;;;;;;;;;;;;;;;17.24;52.40;103073.97;4998361;28;19921;-76
2022/02/28 00:06:50;;;;;;;;;;;;;;;17.21;53.02;103074.75;5015770;28;19924;-77
2022/02/28 00:09:16;;;;;;;;;;;;;;;17.22;52.76;103079.16;5015747;28;19914;-76
2022/02/28 00:11:41;;;;;;;;;;;;;;;17.22;52.29;103073.03;5012596;28;19926;-77
2022/02/28 00:14:06;;;;;;;;;;;;;;;17.21;52.89;103084.28;4989577;28;19926;-76
2022/02/28 00:16:32;;;;;;;;;;;;;;;17.20;52.41;103079.91;4981745;28;20018;-77
2022/02/28 00:18:57;;;;;;;;;;;;;;;17.20;53.22;103079.91;5015675;28;19918;-77
2022/02/28 00:21:22;;;;;;;;;;;;;;;17.20;51.79;103079.91;5015827;28;20295;-75
2022/02/28 00:23:47;;;;;;;;;;;;;;;17.19;52.16;103080.78;5001589;28;19918;-76
2022/02/28 00:26:13;;;;;;;;;;;;;;;17.18;52.65;103069.50;4997411;28;19917;-75
2022/02/28 00:28:38;;;;;;;;;;;;;;;17.18;52.96;103072.09;5004402;28;19922;-76
2022/02/28 00:31:03;;;;;;;;;;;;;;;17.18;52.03;103077.28;4978415;28;19922;-75
2022/02/28 00:33:29;;;;;;;;;;;;;;;17.18;52.24;103081.59;5002272;28;19924;-76
2022/02/28 00:35:54;;;;;;;;;;;;;;;17.17;52.56;103082.44;4995812;28;19925;-77
2022/02/28 00:38:19;;;;;;;;;;;;;;;17.18;52.64;103086.78;4989519;28;19987;-77
2022/02/28 00:40:45;;;;;;;;;;;;;;;17.17;52.35;103083.31;4995873;28;19968;-77
2022/02/28 00:43:10;;;;;;;;;;;;;;;17.16;52.13;103091.97;4995899;28;19964;-75
2022/02/28 00:45:35;;;;;;;;;;;;;;;17.16;52.35;103089.38;4995512;28;20520;-77
2022/02/28 00:48:01;;;;;;;;;;;;;;;17.15;52.11;103082.41;4997320;28;19968;-77
2022/02/28 00:50:27;;;;;;;;;;;;;;;17.15;51.71;103086.72;5011780;28;20420;-77
2022/02/28 00:52:52;;;;;;;;;;;;;;;17.15;51.45;103086.72;4995369;28;20364;-78
2022/02/28 00:55:17;;;;;;;;;;;;;;;17.15;52.42;103089.31;5012681;28;20004;-77
2022/02/28 00:57:43;;;;;;;;;;;;;;;17.14;51.86;103090.19;5015141;28;19917;-76
2022/02/28 01:00:12;;;;;;;;;;;;;;;17.15;51.46;103089.31;5014109;28;19927;-75
2022/02/28 01:02:37;;;;;;;;;;;;;;;17.15;52.68;103094.53;4978356;28;20328;-75
2022/02/28 01:05:03;;;;;;;;;;;;;;;17.14;51.74;103097.97;5008319;28;19925;-78
2022/02/28 01:07:28;;;;;;;;;;;;;;;17.13;52.02;103094.47;5003384;28;19922;-77
2022/02/28 01:09:53;;;;;;;;;;;;;;;17.13;52.04;103102.28;4993629;28;20376;-77
2022/02/28 01:12:19;;;;;;;;;;;;;;;17.13;52.32;103102.28;5015047;28;19945;-76
2022/02/28 01:14:44;;;;;;;;;;;;;;;17.12;52.13;103099.66;5014200;28;19921;-77
2022/02/28 01:17:09;;;;;;;;;;;;;;;17.11;51.54;103096.16;5014154;28;19917;-76
2022/02/28 01:19:34;;;;;;;;;;;;;;;17.11;52.18;103090.94;4996437;28;19921;-77
2022/02/28 01:22:00;;;;;;;;;;;;;;;17.11;51.23;103100.47;4997101;28;19970;-77
2022/02/28 01:24:25;;;;;;;;;;;;;;;17.12;52.13;103105.75;4992807;28;20280;-77
2022/02/28 01:26:51;;;;;;;;;;;;;;;17.10;51.83;103104.81;4980808;28;20021;-75
2022/02/28 01:29:16;;;;;;;;;;;;;;;17.11;51.89;103100.47;4996287;28;19972;-76
2022/02/28 01:31:41;;;;;;;;;;;;;;;17.11;52.02;103097.88;5014166;28;19925;-77
2022/02/28 01:34:07;;;;;;;;;;;;;;;17.10;51.78;103093.53;5009514;28;19958;-77
2022/02/28 01:36:32;;;;;;;;;;;;;;;17.09;51.66;103091.75;4996968;28;19913;-77
2022/02/28 01:39:00;;;;;;;;;;;;;;;17.10;51.47;103093.53;4980349;28;19918;-77
2022/02/28 01:41:25;;;;;;;;;;;;;;;17.09;51.44;103095.22;4994663;28;20288;-76
2022/02/28 01:43:50;;;;;;;;;;;;;;;17.08;52.32;103083.06;5008250;28;19923;-77
2022/02/28 01:46:15;;;;;;;;;;;;;;;17.08;51.41;103087.41;4980315;28;19980;-77
2022/02/28 01:48:40;;;;;;;;;;;;;;;17.08;51.80;103087.41;5013622;28;19925;-76
2022/02/28 01:51:06;;;;;;;;;;;;;;;17.08;51.40;103093.47;5013552;28;19917;-77
2022/02/28 01:53:32;;;;;;;;;;;;;;;17.08;52.12;103087.41;5005249;28;20004;-77
2022/02/28 01:55:57;;;;;;;;;;;;;;;17.08;51.17;103095.19;4960880;28;20020;-77
2022/02/28 01:58:22;;;;;;;;;;;;;;;17.07;51.16;103096.91;5000783;28;20053;-75
2022/02/28 02:00:47;;;;;;;;;;;;;;;17.07;51.67;103102.09;5012739;28;19913;-77
2022/02/28 02:03:13;;;;;;;;;;;;;;;17.05;51.25;103094.28;4977392;28;19953;-76
2022/02/28 02:05:38;;;;;;;;;;;;;;;17.06;52.27;103108.16;5005674;28;20354;-76
2022/02/28 02:08:04;;;;;;;;;;;;;;;17.04;51.28;103095.09;4999128;28;19917;-75
2022/02/28 02:10:30;;;;;;;;;;;;;;;17.05;51.66;103090.81;5000030;28;19928;-76
2022/02/28 02:12:55;;;;;;;;;;;;;;;17.04;52.08;103091.63;4983441;28;19918;-75
2022/02/28 02:15:20;;;;;;;;;;;;;;;17.04;51.31;103091.63;5016725;28;20395;-75
2022/02/28 02:17:46;;;;;;;;;;;;;;;17.04;51.98;103096.81;5000374;28;19918;-74
2022/02/28 02:20:30;;;;;;;;;;;;;;;17.03;51.88;103095.06;5001714;28;19918;-75
2022/02/28 02:22:58;;;;;;;;;;;;;;;17.03;51.58;103102.88;4980786;28;20000;-74
2022/02/28 02:25:24;;;;;;;;;;;;;;;17.03;50.91;103095.06;4998588;28;19918;-75
2022/02/28 02:27:49;;;;;;;;;;;;;;;17.02;51.01;103096.78;4998160;28;19918;-75
2022/02/28 02:30:15;;;;;;;;;;;;;;;17.02;51.07;103101.97;4993608;28;19952;-75
2022/02/28 02:32:40;;;;;;;;;;;;;;;17.01;51.08;103096.75;4992018;28;19925;-75
2022/02/28 02:35:06;;;;;;;;;;;;;;;17.01;51.08;103084.63;5000228;28;20363;-75
2022/02/28 02:37:31;;;;;;;;;;;;;;;16.99;51.66;103081.09;4997782;28;20001;-74
2022/02/28 02:39:57;;;;;;;;;;;;;;;16.99;51.13;103080.22;4988266;28;19975;-75
2022/02/28 02:42:22;;;;;;;;;;;;;;;16.98;51.77;103076.72;5000112;28;19925;-75
2022/02/28 02:44:47;;;;;;;;;;;;;;;16.99;51.81;103075.00;5017027;28;20011;-74
2022/02/28 02:47:12;;;;;;;;;;;;;;;16.98;52.11;103074.09;4999397;28;19969;-75
2022/02/28 02:49:37;;;;;;;;;;;;;;;16.99;50.74;103081.09;5014629;28;19925;-75
2022/02/28 02:52:03;;;;;;;;;;;;;;;16.99;51.50;103080.22;4996309;28;19921;-75
2022/02/28 02:54:28;;;;;;;;;;;;;;;16.98;51.27;103075.84;4986998;28;19925;-75
2022/02/28 02:56:54;;;;;;;;;;;;;;;16.97;51.17;103072.34;4984565;28;19918;-75
2022/02/28 02:59:19;;;;;;;;;;;;;;;16.97;51.55;103074.97;4980127;28;19918;-75
2022/02/28 03:01:44;;;;;;;;;;;;;;;16.97;50.73;103071.47;4997066;28;20056;-75
2022/02/28 03:04:09;;;;;;;;;;;;;;;16.96;51.17;103073.22;4999625;28;20059;-75
2022/02/28 03:06:35;;;;;;;;;;;;;;;16.96;51.54;103065.41;4983466;28;19922;-74
2022/02/28 03:09:00;;;;;;;;;;;;;;;16.95;51.01;103062.75;4986767;28;19921;-75
2022/02/28 03:11:25;;;;;;;;;;;;;;;16.96;51.03;103052.41;5009884;28;19928;-75
2022/02/28 03:13:51;;;;;;;;;;;;;;;16.95;50.72;103054.94;5016804;28;19917;-75
2022/02/28 03:16:16;;;;;;;;;;;;;;;16.96;50.60;103055.00;4989501;28;20120;-75
2022/02/28 03:18:41;;;;;;;;;;;;;;;16.95;50.75;103050.63;4995750;28;19920;-75
2022/02/28 03:21:07;;;;;;;;;;;;;;;16.95;51.29;103048.03;4999030;28;19929;-76
2022/02/28 03:23:35;;;;;;;;;;;;;;;16.94;51.04;103050.56;4989672;28;19921;-76
2022/02/28 03:26:00;;;;;;;;;;;;;;;16.93;50.94;103049.69;4994280;28;19921;-76
2022/02/28 03:28:26;;;;;;;;;;;;;;;16.93;50.82;103047.09;5015923;28;20005;-76
2022/02/28 03:30:51;;;;;;;;;;;;;;;16.92;51.43;103042.75;4999404;28;19913;-76
2022/02/28 03:33:16;;;;;;;;;;;;;;;16.92;51.45;103045.34;5016524;28;20338;-76
2022/02/28 03:35:42;;;;;;;;;;;;;;;16.91;51.00;103043.56;5015511;28;19987;-76
2022/02/28 03:38:07;;;;;;;;;;;;;;;16.91;50.34;103043.56;4963957;28;19926;-76
2022/02/28 03:40:33;;;;;;;;;;;;;;;16.91;51.03;103051.38;5005577;28;20004;-76
2022/02/28 03:43:01;;;;;;;;;;;;;;;16.91;50.38;103048.78;4985660;28;19950;-76
2022/02/28 03:45:27;;;;;;;;;;;;;;;16.91;50.22;103050.50;5016348;28;19914;-76
2022/02/28 03:47:52;;;;;;;;;;;;;;;16.90;50.50;103049.63;5016197;28;20382;-76
2022/02/28 03:50:17;;;;;;;;;;;;;;;16.90;50.11;103049.63;5014010;28;19917;-75
2022/02/28 03:52:43;;;;;;;;;;;;;;;16.88;51.43;103053.91;4978959;28;20348;-74
2022/02/28 03:55:09;;;;;;;;;;;;;;;16.89;50.34;103046.97;4996641;28;19940;-75
2022/02/28 03:57:34;;;;;;;;;;;;;;;16.88;50.84;103047.81;5005055;28;19924;-75
2022/02/28 03:59:59;;;;;;;;;;;;;;;16.89;50.53;103046.97;5016085;28;20027;-75
2022/02/28 04:02:24;;;;;;;;;;;;;;;16.89;49.89;103042.63;5015735;28;19928;-75
2022/02/28 04:04:50;;;;;;;;;;;;;;;16.88;50.44;103042.63;5016070;28;19920;-75
2022/02/28 04:07:15;;;;;;;;;;;;;;;16.88;50.79;103046.09;5010329;28;19975;-75
2022/02/28 04:09:41;;;;;;;;;;;;;;;16.88;50.22;103048.69;4996258;28;19948;-74
2022/02/28 04:12:07;;;;;;;;;;;;;;;16.88;51.01;103047.81;4984774;28;19940;-75
2022/02/28 04:14:35;;;;;;;;;;;;;;;16.87;49.53;103046.91;5015434;28;20128;-75
2022/02/28 04:17:00;;;;;;;;;;;;;;;16.85;50.95;103044.28;4998248;28;19986;-74
2022/02/28 04:19:25;;;;;;;;;;;;;;;16.85;50.31;103038.19;4979934;28;19918;-74
2022/02/28 04:21:50;;;;;;;;;;;;;;;16.85;50.03;103038.19;4978533;28;19924;-74
2022/02/28 04:24:16;;;;;;;;;;;;;;;16.85;49.19;103038.19;5012610;28;20012;-75
2022/02/28 04:26:44;;;;;;;;;;;;;;;16.85;50.07;103041.69;4997859;28;20012;-75
2022/02/28 04:29:09;;;;;;;;;;;;;;;16.83;50.25;103042.47;5000821;28;19945;-75
2022/02/28 04:31:34;;;;;;;;;;;;;;;16.83;49.80;103043.38;4995968;28;19922;-78
2022/02/28 04:34:00;;;;;;;;;;;;;;;16.83;50.92;103042.47;4976139;28;19921;-75
2022/02/28 04:36:25;;;;;;;;;;;;;;;16.83;49.75;103038.16;5015542;28;19917;-75
2022/02/28 04:38:50;;;;;;;;;;;;;;;16.83;50.19;103040.75;4997523;28;20012;-75
2022/02/28 04:41:15;;;;;;;;;;;;;;;16.82;49.95;103044.19;5015306;28;20337;-75
2022/02/28 04:43:41;;;;;;;;;;;;;;;16.81;49.96;103037.25;4986625;28;19929;-75
2022/02/28 04:46:06;;;;;;;;;;;;;;;16.81;50.42;103038.94;4995485;28;20360;-75
2022/02/28 04:48:31;;;;;;;;;;;;;;;16.82;50.10;103038.13;4978363;28;20380;-76
2022/02/28 04:50:56;;;;;;;;;;;;;;;16.82;50.09;103038.13;4962062;28;19921;-75
2022/02/28 04:53:22;;;;;;;;;;;;;;;16.81;49.72;103032.03;4977965;28;20360;-75
2022/02/28 04:55:48;;;;;;;;;;;;;;;16.80;50.24;103030.25;4977989;28;19964;-75
2022/02/28 04:58:13;;;;;;;;;;;;;;;16.80;49.82;103031.97;4964748;28;19922;-75
2022/02/28 05:00:38;;;;;;;;;;;;;;;16.79;49.17;103031.06;4997624;28;19917;-75
2022/02/28 05:03:04;;;;;;;;;;;;;;;16.79;49.36;103025.88;5000264;28;19922;-74
2022/02/28 05:05:29;;;;;;;;;;;;;;;16.78;50.27;103029.28;4984850;28;19918;-75
2022/02/28 05:07:54;;;;;;;;;;;;;;;16.79;50.62;103025.00;5014570;28;19921;-75
2022/02/28 05:10:19;;;;;;;;;;;;;;;16.78;49.95;103016.28;5014502;28;19921;-75
2022/02/28 05:12:45;;;;;;;;;;;;;;;16.78;50.31;103029.28;4997029;28;19917;-75
2022/02/28 05:15:10;;;;;;;;;;;;;;;16.77;49.69;103031.88;4999873;28;19925;-75
2022/02/28 05:17:36;;;;;;;;;;;;;;;16.78;49.69;103028.44;5007621;28;20079;-75
2022/02/28 05:20:02;;;;;;;;;;;;;;;16.77;49.75;103026.69;4996081;28;19921;-75
2022/02/28 05:22:27;;;;;;;;;;;;;;;16.77;49.50;103029.28;5007690;28;19925;-75
2022/02/28 05:24:52;;;;;;;;;;;;;;;16.76;50.41;103024.91;4980972;28;19933;-75
2022/02/28 05:27:17;;;;;;;;;;;;;;;16.76;49.49;103036.16;5001552;28;19933;-75
2022/02/28 05:29:43;;;;;;;;;;;;;;;16.76;48.62;103033.56;4991716;28;19921;-75
2022/02/28 05:32:08;;;;;;;;;;;;;;;16.76;49.39;103043.09;5013082;28;19920;-75
2022/02/28 05:34:33;;;;;;;;;;;;;;;16.75;49.06;103043.94;4979984;28;20257;-76
2022/02/28 05:36:58;;;;;;;;;;;;;;;16.76;49.44;103056.09;4992256;28;19921;-76
2022/02/28 05:39:24;;;;;;;;;;;;;;;16.76;49.13;103051.78;5014372;28;19924;-76
2022/02/28 05:41:49;;;;;;;;;;;;;;;16.75;49.39;103050.03;4993413;28;20020;-75
2022/02/28 05:44:14;;;;;;;;;;;;;;;16.76;48.76;103053.50;4995272;28;19921;-75
2022/02/28 05:46:39;;;;;;;;;;;;;;;16.75;49.15;103052.63;5014269;28;19992;-76
2022/02/28 05:49:05;;;;;;;;;;;;;;;16.75;49.91;103054.34;4978292;28;20008;-74
2022/02/28 05:51:31;;;;;;;;;;;;;;;16.75;49.11;103050.03;5012153;28;19971;-75
2022/02/28 05:53:57;;;;;;;;;;;;;;;16.74;49.47;103048.25;4982771;28;19957;-75
2022/02/28 05:56:22;;;;;;;;;;;;;;;16.74;49.22;103060.38;5013571;28;20375;-75
2022/02/28 05:58:47;;;;;;;;;;;;;;;16.75;48.71;103062.16;4966993;28;20411;-76
2022/02/28 06:01:13;;;;;;;;;;;;;;;16.73;48.88;103061.22;4986586;28;19922;-74
2022/02/28 06:03:38;;;;;;;;;;;;;;;16.74;48.78;103060.38;5013667;28;19917;-75
2022/02/28 06:06:04;;;;;;;;;;;;;;;16.73;49.05;103069.91;5008184;28;19917;-75
2022/02/28 06:08:29;;;;;;;;;;;;;;;16.73;49.65;103077.69;5010334;28;20405;-75
2022/02/28 06:10:54;;;;;;;;;;;;;;;16.74;49.78;103065.56;5007812;28;19922;-76
2022/02/28 06:13:20;;;;;;;;;;;;;;;16.74;49.93;103068.16;4985697;28;20004;-76
2022/02/28 06:15:45;;;;;;;;;;;;;;;16.72;49.58;103078.50;4978957;28;19968;-75
2022/02/28 06:18:11;;;;;;;;;;;;;;;16.97;50.26;103076.69;4990045;28;20307;-75
2022/02/28 06:20:40;;;;;;;;;;;;;;;17.03;50.04;103076.88;5014304;28;19914;-75
2022/02/28 06:23:09;;;;;;;;;;;;;;;17.04;49.86;103070.81;5014042;28;20419;-77
2022/02/28 06:25:34;;;;;;;;;;;;;;;17.03;49.85;103072.53;5014033;28;19996;-74
2022/02/28 06:27:59;;;;;;;;;;;;;;;17.02;49.77;103070.75;5013775;28;20015;-74
2022/02/28 06:30:25;;;;;;;;;;;;;;;17.02;49.85;103069.88;5014245;28;19975;-75
2022/02/28 06:32:50;;;;;;;;;;;;;;;17.01;49.95;103076.81;4996364;28;19940;-74
2022/02/28 06:35:16;;;;;;;;;;;;;;;17.02;49.69;103075.97;4996351;28;19917;-76
2022/02/28 06:37:42;;;;;;;;;;;;;;;17.01;49.58;103079.41;4996408;28;20284;-77
2022/02/28 06:40:07;;;;;;;;;;;;;;;17.01;49.90;103074.22;4996474;28;20008;-76
2022/02/28 06:42:33;;;;;;;;;;;;;;;17.03;49.56;103082.06;5014187;28;20380;-76
2022/02/28 06:44:58;;;;;;;;;;;;;;;17.03;49.73;103077.75;5013943;28;19922;-75
2022/02/28 06:47:23;;;;;;;;;;;;;;;17.04;49.78;103078.63;4996486;28;19968;-75
2022/02/28 06:49:48;;;;;;;;;;;;;;;17.04;49.73;103089.03;5014176;28;19918;-75
2022/02/28 06:52:14;;;;;;;;;;;;;;;17.05;49.61;103086.47;4996266;28;19913;-76
2022/02/28 06:54:39;;;;;;;;;;;;;;;17.04;49.42;103084.69;5017585;28;19913;-75
2022/02/28 06:57:04;;;;;;;;;;;;;;;17.05;49.55;103094.28;5017544;28;19917;-75
2022/02/28 06:59:30;;;;;;;;;;;;;;;17.06;49.44;103089.94;5017500;28;19920;-76
2022/02/28 07:01:55;;;;;;;;;;;;;;;17.08;49.76;103087.41;5017500;28;20424;-76
2022/02/28 07:04:20;;;;;;;;;;;;;;;17.08;49.42;103090.88;5017422;28;19956;-75
2022/02/28 07:06:46;;;;;;;;;;;;;;;17.08;49.23;103087.41;4999685;28;19929;-76
2022/02/28 07:09:11;;;;;;;;;;;;;;;17.09;49.36;103095.22;4983358;28;20016;-76
2022/02/28 07:11:36;;;;;;;;;;;;;;;17.09;49.51;103100.44;4999322;28;19935;-75
2022/02/28 07:14:03;;;;;;;;;;;;;;;17.10;49.40;103098.72;4999336;28;19952;-74
2022/02/28 07:16:28;;;;;;;;;;;;;;;17.11;49.02;103105.69;4999832;28;19976;-75
2022/02/28 07:18:53;;;;;;;;;;;;;;;17.12;49.30;103112.66;4999545;28;20392;-76
2022/02/28 07:21:19;;;;;;;;;;;;;;;17.12;48.94;103115.28;4999758;28;19917;-75
2022/02/28 07:23:44;;;;;;;;;;;;;;;17.12;49.04;103126.56;4999418;28;19917;-75
2022/02/28 07:26:09;;;;;;;;;;;;;;;17.13;49.30;103127.44;4999273;28;20378;-75
2022/02/28 07:28:34;;;;;;;;;;;;;;;17.14;48.90;103121.41;4999613;28;19971;-75
2022/02/28 07:30:59;;;;;;;;;;;;;;;17.13;48.70;103124.81;4999263;28;19909;-74
2022/02/28 07:33:25;;;;;;;;;;;;;;;17.13;48.90;103128.28;4999044;28;19917;-76
2022/02/28 07:35:50;;;;;;;;;;;;;;;17.14;48.72;103122.28;4982775;28;19918;-74
2022/02/28 07:38:15;;;;;;;;;;;;;;;17.17;48.88;103113.66;5016750;28;19917;-74
2022/02/28 07:40:41;;;;;;;;;;;;;;;17.18;48.62;103120.63;5016411;28;20269;-76
2022/02/28 07:43:06;;;;;;;;;;;;;;;17.17;48.50;103124.94;5016414;28;19921;-75
2022/02/28 07:45:32;;;;;;;;;;;;;;;17.16;48.66;103118.00;4998768;28;19949;-74
2022/02/28 07:47:57;;;;;;;;;;;;;;;17.18;48.66;103118.03;4998861;28;20016;-75
2022/02/28 07:50:23;;;;;;;;;;;;;;;17.17;48.41;103119.75;5016311;28;19999;-74
2022/02/28 07:52:48;;;;;;;;;;;;;;;17.17;48.75;103127.56;4999060;28;19960;-75
2022/02/28 07:55:13;;;;;;;;;;;;;;;17.18;48.59;103125.81;4998849;28;19917;-77
2022/02/28 07:57:39;;;;;;;;;;;;;;;17.20;48.54;103124.16;5016219;28;20269;-77
2022/02/28 08:00:05;;;;;;;;;;;;;;;17.22;48.44;103127.69;4998618;28;19971;-77
2022/02/28 08:02:31;;;;;;;;;;;;;;;17.25;48.64;103120.84;5015960;28;19977;-77
2022/02/28 08:04:56;;;;;;;;;;;;;;;17.32;48.31;103119.31;4981771;28;20384;-77
2022/02/28 08:07:21;;;;;;;;;;;;;;;17.43;47.98;103114.41;4998395;28;19921;-75
2022/02/28 08:09:46;;;;;;;;;;;;;;;17.66;47.37;103120.22;5015691;28;20323;-76
2022/02/28 08:12:12;;;;;;;;;;;;;;;17.96;46.40;103116.66;5016266;28;20001;-76
2022/02/28 08:14:39;;;;;;;;;;;;;;;18.20;46.15;103116.38;5015850;28;19921;-77
2022/02/28 08:17:04;;;;;;;;;;;;;;;18.37;46.53;103122.00;5015776;28;19913;-76
2022/02/28 08:19:29;;;;;;;;;;;;;;;18.23;50.03;103124.31;4998032;28;19971;-76
2022/02/28 08:21:54;;;;;;;;;;;;;;;18.20;50.45;103129.41;4997979;28;20375;-75
2022/02/28 08:24:20;;;;;;;;;;;;;;;18.09;51.41;103123.94;4997979;28;19925;-76
2022/02/28 08:26:45;;;;;;;;;;;;;;;18.25;52.63;103126.09;4997920;28;20376;-76
2022/02/28 08:29:10;;;;;;;;;;;;;;;17.99;55.20;103133.28;4981876;28;20334;-76
2022/02/28 08:31:35;;;;;;;;;;;;;;;17.91;54.14;103126.09;4981665;28;19924;-76
2022/02/28 08:34:01;;;;;;;;;;;;;;;17.85;55.56;103126.81;4998124;28;19918;-76
2022/02/28 08:36:26;;;;;;;;;;;;;;;17.82;55.29;103118.94;4997835;28;19920;-76
2022/02/28 08:38:51;;;;;;;;;;;;;;;17.76;54.83;103114.41;4998008;28;19914;-76
2022/02/28 08:41:17;;;;;;;;;;;;;;;17.69;55.83;103113.34;5015228;28;19918;-76
2022/02/28 08:43:42;;;;;;;;;;;;;;;17.70;54.11;103114.22;4997806;28;20391;-76
2022/02/28 08:46:08;;;;;;;;;;;;;;;17.61;55.57;103112.28;5015504;28;19921;-76
2022/02/28 08:48:34;;;;;;;;;;;;;;;17.55;54.89;103113.84;5015543;28;20340;-78
2022/02/28 08:50:59;;;;;;;;;;;;;;;17.52;55.14;103114.63;4997473;28;19914;-76
2022/02/28 08:53:24;;;;;;;;;;;;;;;17.51;55.11;103114.59;5015173;28;20276;-76
2022/02/28 08:55:49;;;;;;;;;;;;;;;17.44;56.39;103103.13;4981502;28;20400;-77
2022/02/28 08:58:15;;;;;;;;;;;;;;;17.47;54.54;103098.03;4981389;28;19925;-77
2022/02/28 09:00:40;;;;;;;;;;;;;;;17.46;54.89;103099.75;4997296;28;20012;-77
2022/02/28 09:03:07;;;;;;;;;;;;;;;17.40;55.32;103094.38;5014947;28;20327;-76
2022/02/28 09:05:35;;;;;;;;;;;;;;;17.39;55.81;103096.94;4997759;28;19918;-77
2022/02/28 09:08:01;;;;;;;;;;;;;;;17.42;54.33;103087.50;4997262;28;20008;-74
2022/02/28 09:10:26;;;;;;;;;;;;;;;17.39;55.02;103095.19;4997336;28;19962;-76
2022/02/28 09:12:52;;;;;;;;;;;;;;;17.30;55.96;103089.75;4981458;28;20368;-76
2022/02/28 09:15:17;;;;;;;;;;;;;;;17.35;55.38;103087.28;4997206;28;19925;-76
2022/02/28 09:17:43;;;;;;;;;;;;;;;17.37;54.95;103094.28;4980178;28;19918;-77
2022/02/28 09:20:08;;;;;;;;;;;;;;;17.32;55.33;103095.00;4997041;28;19964;-77
2022/02/28 09:22:34;;;;;;;;;;;;;;;17.30;55.15;103081.06;5014615;28;19924;-77
2022/02/28 09:24:59;;;;;;;;;;;;;;;17.32;56.17;103084.59;4997273;28;19924;-77
2022/02/28 09:27:26;;;;;;;;;;;;;;;17.26;56.15;103077.50;5014548;28;19963;-76
2022/02/28 09:29:51;;;;;;;;;;;;;;;17.23;56.35;103073.09;5014671;28;19913;-76
2022/02/28 09:32:16;;;;;;;;;;;;;;;17.19;56.86;103062.56;4997216;28;19918;-76
2022/02/28 09:34:49;;;;;;;;;;;;;;;17.17;57.27;103065.09;4981520;28;19918;-77
2022/02/28 09:37:15;;;;;;;;;;;;;;;17.17;56.01;103061.63;5003160;28;19917;-76
2022/02/28 09:39:40;;;;;;;;;;;;;;;17.19;56.83;103075.56;4997027;28;19961;-76
2022/02/28 09:42:06;;;;;;;;;;;;;;;17.18;56.48;103086.78;5014908;28;20051;-75
2022/02/28 09:44:32;;;;;;;;;;;;;;;17.16;55.77;103073.75;4996905;28;19968;-75
2022/02/28 09:46:58;;;;;;;;;;;;;;;17.14;56.83;103074.56;4996886;28;19925;-75
2022/02/28 09:49:24;;;;;;;;;;;;;;;17.13;57.44;103075.38;4996911;28;20004;-76
2022/02/28 09:51:49;;;;;;;;;;;;;;;17.12;56.85;103073.63;5014421;28;19941;-75
2022/02/28 09:54:14;;;;;;;;;;;;;;;17.12;57.49;103065.84;5014413;28;20000;-75
2022/02/28 09:56:39;;;;;;;;;;;;;;;17.09;57.46;103078.75;4980447;28;19964;-75
2022/02/28 09:59:05;;;;;;;;;;;;;;;17.08;57.90;103077.88;5014350;28;19913;-75
2022/02/28 10:01:30;;;;;;;;;;;;;;;17.09;57.39;103081.34;4996891;28;19924;-75
2022/02/28 10:03:56;;;;;;;;;;;;;;;17.08;57.19;103079.59;4996526;28;19913;-74
2022/02/28 10:06:21;;;;;;;;;;;;;;;17.09;56.10;103083.94;4980403;28;19960;-74
2022/02/28 10:08:51;;;;;;;;;;;;;;;17.08;56.15;103079.59;4996495;28;19949;-74
2022/02/28 10:11:24;;;;;;;;;;;;;;;17.05;57.58;103081.28;4996324;28;19983;-76
2022/02/28 10:13:52;;;;;;;;;;;;;;;17.05;58.27;103083.00;4996350;28;19913;-76
2022/02/28 10:16:29;;;;;;;;;;;;;;;17.04;56.99;103089.03;5013883;28;20368;-76
2022/02/28 10:18:54;;;;;;;;;;;;;;;17.03;57.22;103088.16;4996694;28;19913;-76
2022/02/28 10:21:35;;;;;;;;;;;;;;;17.02;57.21;103099.38;4981691;28;20406;-73
2022/02/28 10:24:00;;;;;;;;;;;;;;;17.01;57.69;103091.53;4998484;28;19914;-76
2022/02/28 10:26:25;;;;;;;;;;;;;;;17.00;57.06;103098.44;5015155;28;19940;-77
2022/02/28 10:29:03;;;;;;;;;;;;;;;17.00;56.95;103106.25;5000737;28;19920;-76
2022/02/28 10:31:29;;;;;;;;;;;;;;;17.01;56.99;103097.63;5018045;28;19917;-77
2022/02/28 10:33:54;;;;;;;;;;;;;;;16.98;55.76;103089.72;5017713;28;20004;-77
2022/02/28 10:36:23;;;;;;;;;;;;;;;16.98;57.84;103094.91;5000186;28;20015;-77
2022/02/28 10:38:52;;;;;;;;;;;;;;;16.97;56.10;103097.50;5017886;28;19917;-77
2022/02/28 10:41:28;;;;;;;;;;;;;;;16.97;56.82;103090.56;5017906;28;20000;-78
2022/02/28 10:43:55;;;;;;;;;;;;;;;16.97;57.23;103087.97;5017870;28;19913;-74
2022/02/28 10:46:23;;;;;;;;;;;;;;;16.96;56.27;103099.22;5000027;28;19945;-77
2022/02/28 10:48:57;;;;;;;;;;;;;;;16.96;56.21;103096.63;5017967;28;19920;-74
2022/02/28 10:51:23;;;;;;;;;;;;;;;16.97;55.87;103100.97;5000376;28;20323;-74
2022/02/28 10:53:48;;;;;;;;;;;;;;;16.98;55.45;103092.31;5017595;28;19924;-75
2022/02/28 10:56:13;;;;;;;;;;;;;;;16.98;56.23;103083.63;4999907;28;19925;-75
2022/02/28 10:58:38;;;;;;;;;;;;;;;16.99;56.29;103088.03;4983334;28;19917;-76
2022/02/28 11:01:05;;;;;;;;;;;;;;;16.98;55.72;103092.31;5017559;28;20005;-75
2022/02/28 11:03:47;;;;;;;;;;;;;;;16.99;56.66;103091.50;4999851;28;20352;-76
2022/02/28 11:06:18;;;;;;;;;;;;;;;16.98;55.59;103091.44;4999689;28;19913;-76
2022/02/28 11:08:43;;;;;;;;;;;;;;;16.98;55.44;103086.25;5000767;28;19913;-76
2022/02/28 11:11:10;;;;;;;;;;;;;;;16.98;54.96;103086.25;5016928;28;19932;-76
2022/02/28 11:13:36;;;;;;;;;;;;;;;17.00;54.86;103089.75;4999718;28;20012;-76
2022/02/28 11:16:01;;;;;;;;;;;;;;;16.99;55.99;103086.28;5017410;28;19953;-75
2022/02/28 11:18:27;;;;;;;;;;;;;;;16.98;54.90;103089.72;5017308;28;19928;-76
2022/02/28 11:20:55;;;;;;;;;;;;;;;16.98;55.96;103091.44;5018402;28;19924;-76
2022/02/28 11:23:20;;;;;;;;;;;;;;;17.00;55.68;103080.22;4999718;28;19913;-75
2022/02/28 11:25:47;;;;;;;;;;;;;;;17.03;55.17;103082.06;4983264;28;19965;-75
2022/02/28 11:28:12;;;;;;;;;;;;;;;17.01;55.34;103073.34;5016782;28;19987;-74
2022/02/28 11:30:38;;;;;;;;;;;;;;;17.01;54.86;103076.81;5016612;28;19917;-74
2022/02/28 11:33:03;;;;;;;;;;;;;;;17.03;54.68;103069.06;4999335;28;19917;-75
2022/02/28 11:35:36;;;;;;;;;;;;;;;17.01;54.70;103061.22;4998977;28;19913;-75
2022/02/28 11:38:02;;;;;;;;;;;;;;;17.02;55.12;103057.75;5016779;28;19920;-75
2022/02/28 11:40:31;;;;;;;;;;;;;;;17.03;53.88;103054.31;5016030;28;19923;-75
2022/02/28 11:43:01;;;;;;;;;;;;;;;17.04;54.61;103063.00;4999233;28;20375;-75
2022/02/28 11:45:29;;;;;;;;;;;;;;;17.04;54.76;103056.06;5016658;28;19959;-75
2022/02/28 11:48:18;;;;;;;;;;;;;;;17.04;54.29;103063.00;5016513;28;19917;-76
2022/02/28 11:50:57;;;;;;;;;;;;;;;17.07;54.18;103055.28;4996113;28;19948;-75
2022/02/28 11:53:41;;;;;;;;;;;;;;;17.08;54.03;103054.44;5016594;28;19953;-74
2022/02/28 11:56:15;;;;;;;;;;;;;;;17.13;53.04;103047.66;5016694;28;19936;-76
2022/02/28 11:58:48;;;;;;;;;;;;;;;17.18;52.67;103051.28;4998757;28;19914;-75
2022/02/28 12:01:14;;;;;;;;;;;;;;;17.21;52.83;103034.88;4998666;28;19999;-77
2022/02/28 12:03:48;;;;;;;;;;;;;;;17.23;52.56;103031.47;4982508;28;20300;-75
2022/02/28 12:06:33;;;;;;;;;;;;;;;17.25;52.42;103036.72;4998787;28;20000;-78
2022/02/28 12:08:58;;;;;;;;;;;;;;;17.25;52.59;103034.09;5016256;28;20296;-77
2022/02/28 12:11:28;;;;;;;;;;;;;;;17.24;52.72;103042.75;4998432;28;19925;-78
2022/02/28 12:14:04;;;;;;;;;;;;;;;17.25;52.84;103031.50;4998361;28;19922;-77
2022/02/28 12:19:27;;;;;;;;;;;;;;;17.32;52.68;103024.75;5020810;28;19921;-76
2022/02/28 12:22:03;;;;;;;;;;;;;;;17.37;52.56;103024.00;4998264;28;19914;-77
2022/02/28 12:25:06;;;;;;;;;;;;;;;17.39;52.62;103016.25;5015632;28;20379;-77
2022/02/28 12:27:32;;;;;;;;;;;;;;;17.43;52.60;103020.69;4977607;28;19918;-76
2022/02/28 12:29:58;;;;;;;;;;;;;;;17.45;52.57;103017.28;4994121;28;19918;-78
2022/02/28 12:32:41;;;;;;;;;;;;;;;17.46;52.58;103024.25;5004092;28;19920;-77
2022/02/28 12:35:07;;;;;;;;;;;;;;;17.47;52.75;103020.81;4997805;28;19920;-76